Bishops Lydeard, United Kingdom
Current Conditions -  °F | °C
As of 1:20 PM on Saturday 22 Nov 2014 (Local Time) from EGFF Reporting Station
Few Clouds Few Clouds  
Wind Chill: 57°   Ceiling: Unl
Heat Index: 57°   Visibility: 6mi
Dew Point: 52°   Wind: 7mph
Humidity: 82%   Direction: 280°W
Pressure: 29.88"   Gusts: NA
Location:  51.06°N, 3.19°W
Report Text: EGFF 221320Z 28006KT 9999 FEW016 14/11 Q1012
Loading
Personal Weather Stations






























Interactive Weather Map New forecast layout! Learn more

10-Day Weather Forecast

Advertisements
Track Severe Weather on mobile